Minnetonka, Minnesota
Current Conditions -  °F | °C
As of 9:53 PM on Tuesday 25 Nov 2014 (Local Time) from KFCM Reporting Station
Overcast Overcast  
Wind Chill: 16°   Ceiling: 6000
Heat Index: 25°   Visibility: 10mi
Dew Point: 16°   Wind: 9mph
Humidity: 69%   Direction: 120°ESE
Pressure: 30.01"   Gusts: NA
Location:  44.94°N, 93.47°W
Report Text: KFCM 260353Z 12008KT 10SM OVC060 M04/M09 A3001 RMK AO2 SLP178 T10391089
Loading
Personal Weather Stations






























Interactive Weather Map New forecast layout! Learn more

10-Day Weather Forecast

Advertisements
Track Severe Weather on mobile